createdAt,value
2023-11-06T00:00:22.671Z,91.57
2023-11-06T00:03:11.362Z,91.56
2023-11-06T00:05:39.655Z,91.60
2023-11-06T00:08:08.042Z,91.58
2023-11-06T00:10:36.161Z,91.58
2023-11-06T00:13:05.488Z,91.55
2023-11-06T00:15:33.724Z,91.53
2023-11-06T00:18:01.881Z,91.50
2023-11-06T00:20:30.137Z,91.53
2023-11-06T00:22:58.302Z,91.46
2023-11-06T00:25:27.227Z,91.39
2023-11-06T00:27:57.152Z,91.33
2023-11-06T00:30:25.284Z,91.29
2023-11-06T00:32:53.556Z,91.31
2023-11-06T00:35:21.785Z,91.35
2023-11-06T00:37:50.029Z,91.48
2023-11-06T00:40:19.258Z,91.50
2023-11-06T00:42:47.462Z,91.49
2023-11-06T00:45:15.859Z,91.39
2023-11-06T00:47:44.000Z,91.31
2023-11-06T00:50:12.612Z,91.27
2023-11-06T00:52:41.076Z,91.15
2023-11-06T00:55:09.488Z,91.05
2023-11-06T00:57:37.653Z,90.99
2023-11-06T01:00:06.224Z,90.93
2023-11-06T01:02:34.451Z,90.95
2023-11-06T01:05:03.043Z,90.95
2023-11-06T01:07:32.509Z,90.85
2023-11-06T01:10:01.212Z,90.82
2023-11-06T01:12:29.687Z,90.72
2023-11-06T01:14:58.640Z,90.76
2023-11-06T01:17:27.016Z,90.78
2023-11-06T01:19:55.202Z,90.92
2023-11-06T01:22:31.239Z,91.06
2023-11-06T01:25:07.668Z,91.10
2023-11-06T01:27:35.778Z,91.06
2023-11-06T01:30:05.258Z,91.15
2023-11-06T01:32:33.593Z,91.14
2023-11-06T01:35:01.845Z,91.21
2023-11-06T01:37:30.736Z,91.16
2023-11-06T01:39:58.927Z,91.22
2023-11-06T01:42:28.104Z,91.17
2023-11-06T01:44:56.144Z,91.20
2023-11-06T01:47:24.427Z,91.34
2023-11-06T01:49:52.593Z,91.34
2023-11-06T01:52:22.750Z,91.39
2023-11-06T01:54:50.778Z,91.39
2023-11-06T01:57:20.365Z,91.48
2023-11-06T01:59:49.138Z,91.60
2023-11-06T02:02:19.812Z,91.62
2023-11-06T02:04:50.752Z,91.59
2023-11-06T02:07:19.274Z,91.57
2023-11-06T02:09:47.515Z,91.54
2023-11-06T02:12:15.473Z,91.52
2023-11-06T02:14:53.849Z,91.49
2023-11-06T02:17:23.130Z,91.49
2023-11-06T02:19:51.627Z,91.39
2023-11-06T02:22:21.191Z,91.35
2023-11-06T02:24:50.306Z,91.26
2023-11-06T02:27:19.163Z,91.21
2023-11-06T02:29:49.726Z,91.18
2023-11-06T02:32:17.821Z,91.16
2023-11-06T02:34:46.715Z,91.07
2023-11-06T02:37:15.125Z,91.02
2023-11-06T02:39:43.085Z,90.98
2023-11-06T02:42:11.310Z,90.94
2023-11-06T02:44:39.753Z,90.78
2023-11-06T02:47:08.587Z,90.67
2023-11-06T02:49:37.012Z,90.59
2023-11-06T02:52:05.239Z,90.45
2023-11-06T02:54:33.205Z,90.39
2023-11-06T02:57:01.365Z,90.29
2023-11-06T02:59:29.414Z,90.13
2023-11-06T03:01:57.393Z,89.95
2023-11-06T03:04:25.687Z,89.96
2023-11-06T03:06:53.697Z,89.86
2023-11-06T03:09:21.805Z,89.71
2023-11-06T03:11:50.028Z,89.55
2023-11-06T03:14:18.602Z,89.36
2023-11-06T03:16:46.679Z,89.15
2023-11-06T03:19:14.769Z,89.05
2023-11-06T03:21:42.906Z,89.13
2023-11-06T03:24:10.917Z,88.88
2023-11-06T03:26:38.860Z,88.69
2023-11-06T03:29:07.102Z,88.47
2023-11-06T03:31:35.057Z,88.34
2023-11-06T03:34:03.976Z,87.95
2023-11-06T03:36:32.074Z,87.85
2023-11-06T03:39:00.189Z,87.79
2023-11-06T03:41:28.301Z,87.83
2023-11-06T03:43:56.223Z,87.79
2023-11-06T03:46:24.516Z,87.93
2023-11-06T03:48:52.661Z,87.42
2023-11-06T03:51:20.577Z,87.23
2023-11-06T03:53:48.530Z,87.26
2023-11-06T03:56:16.824Z,87.34
2023-11-06T03:58:45.351Z,87.31
2023-11-06T04:01:13.495Z,87.14
2023-11-06T04:03:41.843Z,87.24
2023-11-06T04:06:10.285Z,87.18
2023-11-06T04:08:38.314Z,87.12
2023-11-06T04:11:06.461Z,87.04
2023-11-06T04:13:34.452Z,86.79
2023-11-06T04:16:04.837Z,86.36
2023-11-06T04:18:32.935Z,86.37
2023-11-06T04:21:02.186Z,86.52
2023-11-06T04:23:33.560Z,86.37
2023-11-06T04:26:02.002Z,86.67
2023-11-06T04:28:30.018Z,86.37
2023-11-06T04:30:57.948Z,86.29
2023-11-06T04:33:26.034Z,86.43
2023-11-06T04:35:54.111Z,86.20
2023-11-06T04:38:22.108Z,86.32
2023-11-06T04:40:50.486Z,86.23
2023-11-06T04:43:18.703Z,85.78
2023-11-06T04:45:46.558Z,85.28
2023-11-06T04:48:14.583Z,84.88
2023-11-06T04:50:44.287Z,85.04
2023-11-06T04:53:12.370Z,85.32
2023-11-06T04:55:40.462Z,85.17
2023-11-06T04:58:08.449Z,85.22
2023-11-06T05:00:37.047Z,84.99
2023-11-06T05:03:05.244Z,85.10
2023-11-06T05:05:33.431Z,85.08
2023-11-06T05:08:01.448Z,85.14
2023-11-06T05:10:30.556Z,85.29
2023-11-06T05:12:59.199Z,85.02
2023-11-06T05:15:27.117Z,85.05
2023-11-06T05:17:55.113Z,84.68
2023-11-06T05:20:24.287Z,84.81
2023-11-06T05:22:52.479Z,84.21
2023-11-06T05:25:20.887Z,84.19
2023-11-06T05:27:49.081Z,83.89
2023-11-06T05:30:17.008Z,84.03
2023-11-06T05:32:45.792Z,83.70
2023-11-06T05:35:13.861Z,83.67
2023-11-06T05:37:41.855Z,84.04
2023-11-06T05:40:10.557Z,83.36
2023-11-06T05:42:38.677Z,83.29
2023-11-06T05:45:10.801Z,83.12
2023-11-06T05:47:39.070Z,83.49
2023-11-06T05:50:08.009Z,83.08
2023-11-06T05:52:35.952Z,83.16
2023-11-06T05:55:05.943Z,82.78
2023-11-06T05:57:33.997Z,82.53
2023-11-06T06:00:02.585Z,82.67
2023-11-06T06:02:40.604Z,82.67
2023-11-06T06:05:08.947Z,82.52
2023-11-06T06:07:36.836Z,82.60
2023-11-06T06:10:06.212Z,81.55
2023-11-06T06:12:34.763Z,81.67
2023-11-06T06:15:03.003Z,81.76
2023-11-06T06:17:31.355Z,81.85
2023-11-06T06:19:59.412Z,81.85
2023-11-06T06:22:27.500Z,82.36
2023-11-06T06:24:55.568Z,81.52
2023-11-06T06:27:23.980Z,81.23
2023-11-06T06:29:53.472Z,81.13
2023-11-06T06:32:21.526Z,80.96
2023-11-06T06:34:49.610Z,81.51
2023-11-06T06:37:18.016Z,80.94
2023-11-06T06:39:46.275Z,79.80
2023-11-06T06:42:15.155Z,80.24
2023-11-06T06:44:43.221Z,79.76
2023-11-06T06:47:11.832Z,78.91
2023-11-06T06:49:42.696Z,79.36
2023-11-06T06:52:11.439Z,79.91
2023-11-06T06:54:40.292Z,79.05
2023-11-06T06:57:08.263Z,79.34
2023-11-06T06:59:37.303Z,79.09
2023-11-06T07:02:07.007Z,78.82
2023-11-06T07:04:35.072Z,78.08
2023-11-06T07:07:03.095Z,78.21
2023-11-06T07:09:33.518Z,78.53
2023-11-06T07:12:06.760Z,77.60
2023-11-06T07:14:35.672Z,77.59
2023-11-06T07:17:07.052Z,77.53
2023-11-06T07:19:35.086Z,77.80
2023-11-06T07:22:03.309Z,77.28
2023-11-06T07:24:31.966Z,77.35
2023-11-06T07:27:00.224Z,77.91
2023-11-06T07:29:28.887Z,77.06
2023-11-06T07:31:56.977Z,76.63
2023-11-06T07:34:25.182Z,76.58
2023-11-06T07:36:54.324Z,76.83
2023-11-06T07:39:22.501Z,76.52
2023-11-06T07:41:50.564Z,76.42
2023-11-06T07:44:21.836Z,76.48
2023-11-06T07:46:50.927Z,76.68
2023-11-06T07:49:19.412Z,76.39
2023-11-06T07:51:49.755Z,76.64
2023-11-06T07:54:17.738Z,77.26
2023-11-06T07:56:47.140Z,76.76
2023-11-06T07:59:15.201Z,76.62
2023-11-06T08:01:43.245Z,76.73
2023-11-06T08:04:11.353Z,76.44
2023-11-06T08:06:39.417Z,76.71
2023-11-06T08:09:07.900Z,76.09
2023-11-06T08:11:37.338Z,76.09
2023-11-06T08:14:06.208Z,75.64
2023-11-06T08:16:36.104Z,76.29
2023-11-06T08:19:04.418Z,75.92
2023-11-06T08:21:32.391Z,75.95
2023-11-06T08:24:01.484Z,76.20
2023-11-06T08:26:29.710Z,76.07
2023-11-06T08:28:57.895Z,75.64
2023-11-06T08:31:26.264Z,75.82
2023-11-06T08:33:54.564Z,75.89
2023-11-06T08:36:22.649Z,76.39
2023-11-06T08:38:50.536Z,76.65
2023-11-06T08:41:18.656Z,76.65
2023-11-06T08:43:47.638Z,76.95
2023-11-06T08:46:15.602Z,77.22
2023-11-06T08:48:46.726Z,77.17
2023-11-06T08:51:14.817Z,77.28
2023-11-06T08:53:42.927Z,77.21
2023-11-06T08:56:12.323Z,76.85
2023-11-06T08:58:40.285Z,77.20
2023-11-06T09:01:09.526Z,77.18
2023-11-06T09:03:40.120Z,77.53
2023-11-06T09:06:10.187Z,77.68
2023-11-06T09:08:38.640Z,77.97
2023-11-06T09:11:08.507Z,78.25
2023-11-06T09:13:37.552Z,78.75
2023-11-06T09:16:06.561Z,78.99
2023-11-06T09:18:34.717Z,79.60
2023-11-06T09:21:05.253Z,79.83
2023-11-06T09:23:33.242Z,80.24
2023-11-06T09:26:02.103Z,80.59
2023-11-06T09:28:30.038Z,81.23
2023-11-06T09:30:58.070Z,81.45
2023-11-06T09:33:26.702Z,81.42
2023-11-06T09:35:54.769Z,81.75
2023-11-06T09:38:22.869Z,81.83
2023-11-06T09:40:51.013Z,81.83
2023-11-06T09:43:19.839Z,81.76
2023-11-06T09:45:48.672Z,81.62
2023-11-06T09:48:19.615Z,81.69
2023-11-06T09:50:50.253Z,81.47
2023-11-06T09:53:19.918Z,81.48
2023-11-06T09:55:48.067Z,81.12
2023-11-06T09:58:16.680Z,81.06
2023-11-06T10:00:45.085Z,81.07
2023-11-06T10:03:14.652Z,80.42
2023-11-06T10:05:43.109Z,80.29
2023-11-06T10:08:11.445Z,80.37
2023-11-06T10:10:42.199Z,79.91
2023-11-06T10:13:13.594Z,79.14
2023-11-06T10:15:41.786Z,78.88
2023-11-06T10:18:15.806Z,78.95
2023-11-06T10:20:45.689Z,78.21
2023-11-06T10:23:24.256Z,77.76
2023-11-06T10:25:59.002Z,76.69
2023-11-06T10:28:27.720Z,76.83
2023-11-06T10:30:56.095Z,77.49
2023-11-06T10:33:25.318Z,77.26
2023-11-06T10:35:53.662Z,76.72
2023-11-06T10:38:34.647Z,76.32
2023-11-06T10:41:18.075Z,75.15
2023-11-06T10:43:57.114Z,75.27
2023-11-06T10:46:32.860Z,76.08
2023-11-06T10:49:11.495Z,74.76
2023-11-06T10:51:41.725Z,75.17
2023-11-06T10:54:11.209Z,75.38
2023-11-06T10:56:40.802Z,74.35
2023-11-06T10:59:10.107Z,73.66
2023-11-06T11:01:40.248Z,74.15
2023-11-06T11:04:12.030Z,73.92
2023-11-06T11:06:42.336Z,72.23
2023-11-06T11:09:12.687Z,72.66
2023-11-06T11:11:40.928Z,73.19
2023-11-06T11:14:14.030Z,72.65
2023-11-06T11:16:46.344Z,73.00
2023-11-06T11:19:22.623Z,72.88
2023-11-06T11:22:07.504Z,72.42
2023-11-06T11:24:47.470Z,72.98
2023-11-06T11:27:19.007Z,72.31
2023-11-06T11:29:57.861Z,72.31
2023-11-06T11:32:28.723Z,72.26
2023-11-06T11:34:58.918Z,71.84
2023-11-06T11:37:30.955Z,71.35
2023-11-06T11:40:01.441Z,70.60
2023-11-06T11:42:30.297Z,70.06
2023-11-06T11:45:00.591Z,70.00
2023-11-06T11:47:47.557Z,70.40
2023-11-06T11:50:28.494Z,70.74
2023-11-06T11:52:57.552Z,70.10
2023-11-06T11:55:43.492Z,69.16
2023-11-06T11:58:12.914Z,69.57
2023-11-06T12:00:46.013Z,68.65
2023-11-06T12:03:18.021Z,69.54
2023-11-06T12:05:56.948Z,69.99
2023-11-06T12:08:30.071Z,69.64
2023-11-06T12:11:11.474Z,70.31
2023-11-06T12:13:40.443Z,70.48
2023-11-06T12:16:09.407Z,70.38
2023-11-06T12:18:44.316Z,69.76
2023-11-06T12:21:15.845Z,70.16
2023-11-06T12:23:44.417Z,68.84
2023-11-06T12:26:16.216Z,69.45
2023-11-06T12:28:49.456Z,69.76
2023-11-06T12:31:21.154Z,69.42
2023-11-06T12:33:49.656Z,69.99
2023-11-06T12:36:33.401Z,70.04
2023-11-06T12:39:03.387Z,70.09
2023-11-06T12:41:35.289Z,70.22
2023-11-06T12:44:04.469Z,70.00
2023-11-06T12:49:19.754Z,70.35
2023-11-06T12:51:51.316Z,69.98
2023-11-06T12:54:25.854Z,69.83
2023-11-06T12:56:55.023Z,69.68
2023-11-06T12:59:23.491Z,69.96
2023-11-06T13:01:52.835Z,69.39
2023-11-06T13:04:21.729Z,69.78
2023-11-06T13:06:49.888Z,69.96
2023-11-06T13:09:18.474Z,69.88
2023-11-06T13:11:46.604Z,69.88
2023-11-06T13:14:16.217Z,69.88
2023-11-06T13:16:44.613Z,69.50
2023-11-06T13:19:14.215Z,69.58
2023-11-06T13:21:42.627Z,69.80
2023-11-06T13:24:10.571Z,70.05
2023-11-06T13:26:39.074Z,69.59
2023-11-06T13:29:09.270Z,69.67
2023-11-06T13:31:37.313Z,70.30
2023-11-06T13:34:05.544Z,70.06
2023-11-06T13:36:34.588Z,70.03
2023-11-06T13:39:02.560Z,70.27
2023-11-06T13:41:30.923Z,69.60
2023-11-06T13:43:59.417Z,69.46
2023-11-06T13:46:29.983Z,69.73
2023-11-06T13:48:58.670Z,69.56
2023-11-06T13:51:27.910Z,70.05
2023-11-06T13:54:03.406Z,69.42
2023-11-06T13:56:39.419Z,69.33
2023-11-06T13:59:11.100Z,69.54
2023-11-06T14:01:50.058Z,69.70
2023-11-06T14:04:19.112Z,69.68
2023-11-06T14:06:50.299Z,69.72
2023-11-06T14:09:40.144Z,69.44
2023-11-06T14:12:12.461Z,70.13
2023-11-06T14:14:41.525Z,70.19
2023-11-06T14:17:11.457Z,70.11
2023-11-06T14:19:42.754Z,69.81
2023-11-06T14:22:11.909Z,69.96
2023-11-06T14:24:40.453Z,70.31
2023-11-06T14:27:09.126Z,70.37
2023-11-06T14:29:37.888Z,70.53
2023-11-06T14:32:07.151Z,70.34
2023-11-06T14:34:35.441Z,70.36
2023-11-06T14:37:03.601Z,70.46
2023-11-06T14:39:31.605Z,70.63
2023-11-06T14:41:59.698Z,70.78
2023-11-06T14:44:29.233Z,70.68
2023-11-06T14:46:57.915Z,71.10
2023-11-06T14:49:26.242Z,71.10
2023-11-06T14:51:54.372Z,71.02
2023-11-06T14:54:22.548Z,71.29
2023-11-06T14:56:50.622Z,71.33
2023-11-06T14:59:19.200Z,71.49
2023-11-06T15:01:48.562Z,71.66
2023-11-06T15:04:16.896Z,71.92
2023-11-06T15:06:44.992Z,72.09
2023-11-06T15:09:12.957Z,72.12
2023-11-06T15:11:40.901Z,72.13
2023-11-06T15:14:10.549Z,72.21
2023-11-06T15:16:38.558Z,72.35
2023-11-06T15:19:07.694Z,72.22
2023-11-06T15:21:35.871Z,72.25
2023-11-06T15:24:04.023Z,72.47
2023-11-06T15:26:32.992Z,72.51
2023-11-06T15:29:01.057Z,72.28
2023-11-06T15:31:29.851Z,72.00
2023-11-06T15:33:58.146Z,71.87
2023-11-06T15:36:26.288Z,71.82
2023-11-06T15:38:54.834Z,72.04
2023-11-06T15:41:23.674Z,72.03
2023-11-06T15:43:51.553Z,72.34
2023-11-06T15:46:27.180Z,72.50
2023-11-06T15:49:00.228Z,72.78
2023-11-06T15:51:28.590Z,73.00
2023-11-06T15:53:57.626Z,73.35
2023-11-06T15:56:26.095Z,73.64
2023-11-06T15:58:54.098Z,73.94
2023-11-06T16:01:22.197Z,74.48
2023-11-06T16:03:50.540Z,74.74
2023-11-06T16:06:18.652Z,74.97
2023-11-06T16:08:47.059Z,75.02
2023-11-06T16:11:16.216Z,75.16
2023-11-06T16:13:50.274Z,75.64
2023-11-06T16:16:18.766Z,76.09
2023-11-06T16:18:46.964Z,76.50
2023-11-06T16:21:15.056Z,76.88
2023-11-06T16:23:43.489Z,76.77
2023-11-06T16:26:11.616Z,77.17
2023-11-06T16:28:40.354Z,77.22
2023-11-06T16:31:09.455Z,77.18
2023-11-06T16:33:38.695Z,77.45
2023-11-06T16:36:12.278Z,77.72
2023-11-06T16:38:43.307Z,77.70
2023-11-06T16:41:11.340Z,77.84
2023-11-06T16:43:39.403Z,78.04
2023-11-06T16:46:10.151Z,78.32
2023-11-06T16:48:39.348Z,78.47
2023-11-06T16:51:07.938Z,78.49
2023-11-06T16:53:36.169Z,78.36
2023-11-06T16:56:04.437Z,78.32
2023-11-06T16:58:32.532Z,78.39
2023-11-06T17:01:00.524Z,77.94
2023-11-06T17:03:29.213Z,78.18
2023-11-06T17:05:59.435Z,78.15
2023-11-06T17:08:27.949Z,78.20
2023-11-06T17:10:56.657Z,78.19
2023-11-06T17:13:25.642Z,78.27
2023-11-06T17:15:53.813Z,78.36
2023-11-06T17:18:22.191Z,78.14
2023-11-06T17:20:50.703Z,78.11
2023-11-06T17:23:18.898Z,78.13
2023-11-06T17:25:47.573Z,78.25
2023-11-06T17:28:15.668Z,78.30
2023-11-06T17:30:43.988Z,78.24
2023-11-06T17:33:12.129Z,78.37
2023-11-06T17:35:40.495Z,78.35
2023-11-06T17:38:09.842Z,78.59
2023-11-06T17:40:42.206Z,78.71
2023-11-06T17:43:11.255Z,78.63
2023-11-06T17:45:39.493Z,78.62
2023-11-06T17:48:09.764Z,78.65
2023-11-06T17:50:38.463Z,78.64
2023-11-06T17:53:06.576Z,78.67
2023-11-06T17:55:34.928Z,78.65
2023-11-06T17:58:03.178Z,78.67
2023-11-06T18:00:31.143Z,78.57
2023-11-06T18:02:59.409Z,78.55
2023-11-06T18:05:28.077Z,78.58
2023-11-06T18:07:56.070Z,78.45
2023-11-06T18:10:24.299Z,78.38
2023-11-06T18:12:52.724Z,78.35
2023-11-06T18:15:20.829Z,78.27
2023-11-06T18:17:49.223Z,78.28
2023-11-06T18:20:19.462Z,78.26
2023-11-06T18:22:48.445Z,78.20
2023-11-06T18:25:18.597Z,78.26
2023-11-06T18:27:47.165Z,78.20
2023-11-06T18:30:15.542Z,78.21
2023-11-06T18:32:45.031Z,78.26
2023-11-06T18:35:13.408Z,78.25
2023-11-06T18:37:41.646Z,78.27
2023-11-06T18:40:10.421Z,78.31
2023-11-06T18:42:41.555Z,78.35
2023-11-06T18:45:10.494Z,78.41
2023-11-06T18:47:38.800Z,78.44
2023-11-06T18:50:07.450Z,78.60
2023-11-06T18:52:35.782Z,78.58
2023-11-06T18:55:05.457Z,78.68
2023-11-06T18:57:33.563Z,78.73
2023-11-06T19:00:01.551Z,78.87
2023-11-06T19:02:29.874Z,78.91
2023-11-06T19:04:58.628Z,78.99
2023-11-06T19:07:27.866Z,79.09
2023-11-06T19:09:56.606Z,79.11
2023-11-06T19:12:24.744Z,79.25
2023-11-06T19:14:52.782Z,79.46
2023-11-06T19:17:20.988Z,79.59
2023-11-06T19:19:49.728Z,79.66
2023-11-06T19:22:18.413Z,79.60
2023-11-06T19:24:53.085Z,79.79
2023-11-06T19:27:25.615Z,79.93
2023-11-06T19:29:55.991Z,80.21
2023-11-06T19:32:24.866Z,80.22
2023-11-06T19:34:53.169Z,80.25
2023-11-06T19:37:21.343Z,80.39
2023-11-06T19:39:49.729Z,80.31
2023-11-06T19:42:19.572Z,80.43
2023-11-06T19:44:49.370Z,80.83
2023-11-06T19:47:17.504Z,80.69
2023-11-06T19:49:45.549Z,80.49
2023-11-06T19:52:14.887Z,80.61
2023-11-06T19:54:43.174Z,80.80
2023-11-06T19:57:11.664Z,80.76
2023-11-06T19:59:47.241Z,80.33
2023-11-06T20:02:26.452Z,80.45
2023-11-06T20:04:56.287Z,80.70
2023-11-06T20:07:24.384Z,80.69
2023-11-06T20:09:52.484Z,80.75
2023-11-06T20:12:20.626Z,80.78
2023-11-06T20:14:48.716Z,80.75
2023-11-06T20:17:16.950Z,80.75
2023-11-06T20:19:45.057Z,80.77
2023-11-06T20:22:14.010Z,80.75
2023-11-06T20:24:43.862Z,80.62
2023-11-06T20:27:12.039Z,80.60
2023-11-06T20:29:40.340Z,80.60
2023-11-06T20:32:08.586Z,80.58
2023-11-06T20:34:36.649Z,80.53
2023-11-06T20:37:04.795Z,80.47
2023-11-06T20:39:33.017Z,80.39
2023-11-06T20:42:01.304Z,80.25
2023-11-06T20:44:30.376Z,80.31
2023-11-06T20:46:58.471Z,80.26
2023-11-06T20:49:26.594Z,80.20
2023-11-06T20:51:54.727Z,80.14
2023-11-06T20:54:23.309Z,80.10
2023-11-06T20:56:51.427Z,80.09
2023-11-06T20:59:19.541Z,80.12
2023-11-06T21:01:47.629Z,80.03
2023-11-06T21:04:16.776Z,79.94
2023-11-06T21:06:44.996Z,79.92
2023-11-06T21:09:15.254Z,79.84
2023-11-06T21:11:43.468Z,79.77
2023-11-06T21:14:12.427Z,79.73
2023-11-06T21:16:40.854Z,79.66
2023-11-06T21:19:09.045Z,79.67
2023-11-06T21:21:37.119Z,79.62
2023-11-06T21:24:07.794Z,79.57
2023-11-06T21:26:36.084Z,79.52
2023-11-06T21:29:04.172Z,79.57
2023-11-06T21:31:32.387Z,79.54
2023-11-06T21:34:02.428Z,79.48
2023-11-06T21:36:30.716Z,79.45
2023-11-06T21:38:59.288Z,79.30
2023-11-06T21:41:27.952Z,79.19
2023-11-06T21:43:56.753Z,79.20
2023-11-06T21:46:24.968Z,79.11
2023-11-06T21:48:53.452Z,79.12
2023-11-06T21:51:21.788Z,79.01
2023-11-06T21:53:50.012Z,78.99
2023-11-06T21:56:18.279Z,79.08
2023-11-06T21:58:49.808Z,79.00
2023-11-06T22:01:19.954Z,78.93
2023-11-06T22:03:48.213Z,78.91
2023-11-06T22:06:16.379Z,78.88
2023-11-06T22:08:44.715Z,78.77
2023-11-06T22:11:12.820Z,78.75
2023-11-06T22:13:40.728Z,78.72
2023-11-06T22:16:08.828Z,78.57
2023-11-06T22:18:36.897Z,78.66
2023-11-06T22:21:05.332Z,78.48
2023-11-06T22:23:34.116Z,78.27
2023-11-06T22:26:02.602Z,78.24
2023-11-06T22:28:31.501Z,78.19
2023-11-06T22:30:59.736Z,78.12
2023-11-06T22:33:27.995Z,78.11
2023-11-06T22:35:56.293Z,78.16
2023-11-06T22:38:24.280Z,77.83
2023-11-06T22:40:52.222Z,77.83
2023-11-06T22:43:20.229Z,77.72
2023-11-06T22:45:48.570Z,77.46
2023-11-06T22:48:16.631Z,77.30
2023-11-06T22:50:45.640Z,77.33
2023-11-06T22:53:19.927Z,77.42
2023-11-06T22:55:48.232Z,77.51
2023-11-06T22:58:16.446Z,77.54
2023-11-06T23:00:47.938Z,77.61
2023-11-06T23:03:16.386Z,77.44
2023-11-06T23:05:46.837Z,77.53
2023-11-06T23:08:15.387Z,77.63
2023-11-06T23:10:44.153Z,77.65
2023-11-06T23:13:13.025Z,77.67
2023-11-06T23:15:41.102Z,77.65
2023-11-06T23:18:09.486Z,77.80
2023-11-06T23:20:37.698Z,77.85
2023-11-06T23:23:06.889Z,77.96
2023-11-06T23:25:38.840Z,78.02
2023-11-06T23:28:08.169Z,78.04
2023-11-06T23:30:36.235Z,78.08
2023-11-06T23:33:04.641Z,78.17
2023-11-06T23:35:36.138Z,78.23
2023-11-06T23:38:04.390Z,78.27
2023-11-06T23:40:33.868Z,78.32
2023-11-06T23:43:02.998Z,78.36
2023-11-06T23:45:31.234Z,78.45
2023-11-06T23:47:59.443Z,78.61
2023-11-06T23:50:27.850Z,78.59
2023-11-06T23:52:56.166Z,78.56
2023-11-06T23:55:24.520Z,78.66
2023-11-06T23:57:52.613Z,78.81
